createdAt,value
2017-03-21T00:00:29.158Z,96.6
2017-03-21T00:01:41.684Z,96.7
2017-03-21T00:02:54.230Z,96.8
2017-03-21T00:04:06.772Z,96.41
2017-03-21T00:05:19.318Z,96.98
2017-03-21T00:06:31.863Z,96.7
2017-03-21T00:07:44.101Z,96.8
2017-03-21T00:08:56.360Z,96.41
2017-03-21T00:10:08.869Z,96.6
2017-03-21T00:11:21.090Z,96.7
2017-03-21T00:12:33.598Z,96.7
2017-03-21T00:13:45.860Z,96.6
2017-03-21T00:14:57.792Z,96.12
2017-03-21T00:16:10.034Z,96.7
2017-03-21T00:17:21.974Z,96.51
2017-03-21T00:18:34.499Z,96.51
2017-03-21T00:19:46.747Z,96.41
2017-03-21T00:20:59.285Z,96.6
2017-03-21T00:22:11.839Z,96.03
2017-03-21T00:23:24.403Z,96.6
2017-03-21T00:24:36.970Z,96.22
2017-03-21T00:25:49.519Z,96.22
2017-03-21T00:27:01.750Z,96.51
2017-03-21T00:28:14.231Z,96.6
2017-03-21T00:29:26.461Z,96.7
2017-03-21T00:30:38.703Z,96.12
2017-03-21T00:31:50.952Z,96.6
2017-03-21T00:33:03.203Z,96.03
2017-03-21T00:34:15.441Z,95.84
2017-03-21T00:35:27.361Z,95.56
2017-03-21T00:36:39.607Z,96.32
2017-03-21T00:37:51.526Z,96.12
2017-03-21T00:39:04.007Z,96.41
2017-03-21T00:40:16.549Z,96.22
2017-03-21T00:41:29.087Z,95.27
2017-03-21T00:42:41.584Z,95.84
2017-03-21T00:43:54.109Z,95.94
2017-03-21T00:45:06.360Z,95.84
2017-03-21T00:46:18.882Z,95.65
2017-03-21T00:47:31.454Z,96.03
2017-03-21T00:48:43.414Z,95.84
2017-03-21T00:49:55.970Z,95.94
2017-03-21T00:51:07.891Z,96.03
2017-03-21T00:52:20.452Z,95.94
2017-03-21T00:53:32.996Z,95.94
2017-03-21T00:54:45.249Z,95.94
2017-03-21T00:55:57.820Z,96.12
2017-03-21T00:57:10.062Z,95.46
2017-03-21T00:58:22.284Z,95.46
2017-03-21T00:59:34.834Z,95.84
2017-03-21T01:00:47.351Z,95.56
2017-03-21T01:01:59.880Z,95.84
2017-03-21T01:03:12.424Z,95.75
2017-03-21T01:04:24.417Z,95.94
2017-03-21T01:05:36.963Z,96.32
2017-03-21T01:06:49.753Z,95.75
2017-03-21T01:08:01.676Z,95.27
2017-03-21T01:09:13.928Z,95.56
2017-03-21T01:10:26.500Z,96.03
2017-03-21T01:11:38.763Z,95.65
2017-03-21T01:12:51.334Z,96.03
2017-03-21T01:14:02.936Z,95.56
2017-03-21T01:15:15.481Z,95.94
2017-03-21T01:16:28.033Z,95.84
2017-03-21T01:17:40.545Z,95.56
2017-03-21T01:18:53.123Z,95.46
2017-03-21T01:20:05.689Z,95.65
2017-03-21T01:21:18.211Z,95.65
2017-03-21T01:22:30.135Z,95.17
2017-03-21T01:23:42.653Z,95.17
2017-03-21T01:24:54.905Z,94.98
2017-03-21T01:26:07.473Z,95.17
2017-03-21T01:27:20.009Z,95.36
2017-03-21T01:28:32.257Z,95.36
2017-03-21T01:29:44.510Z,95.27
2017-03-21T01:30:57.053Z,95.65
2017-03-21T01:32:09.593Z,95.08
2017-03-21T01:33:21.811Z,95.36
2017-03-21T01:34:34.299Z,94.79
2017-03-21T01:35:46.828Z,95.27
2017-03-21T01:36:59.377Z,95.08
2017-03-21T01:38:11.928Z,95.27
2017-03-21T01:39:24.499Z,95.36
2017-03-21T01:40:36.740Z,94.98
2017-03-21T01:41:49.294Z,95.27
2017-03-21T01:43:01.845Z,95.27
2017-03-21T01:44:14.359Z,95.17
2017-03-21T01:45:26.907Z,94.89
2017-03-21T01:46:39.450Z,95.27
2017-03-21T01:47:51.988Z,95.08
2017-03-21T01:49:04.513Z,95.56
2017-03-21T01:50:17.030Z,95.08
2017-03-21T01:51:29.575Z,95.08
2017-03-21T01:52:42.082Z,95.27
2017-03-21T01:53:54.593Z,94.79
2017-03-21T01:55:07.170Z,94.98
2017-03-21T01:56:19.719Z,94.98
2017-03-21T01:57:31.940Z,94.7
2017-03-21T01:58:44.488Z,94.51
2017-03-21T01:59:57.022Z,94.6
2017-03-21T02:01:09.777Z,94.41
2017-03-21T02:02:22.367Z,94.22
2017-03-21T02:03:34.911Z,94.51
2017-03-21T02:04:46.856Z,94.13
2017-03-21T02:05:59.386Z,94.22
2017-03-21T02:07:11.624Z,94.17
2017-03-21T02:08:23.576Z,94.32
2017-03-21T02:09:36.114Z,94.6
2017-03-21T02:10:48.609Z,94.22
2017-03-21T02:12:01.142Z,94.41
2017-03-21T02:13:13.389Z,94.08
2017-03-21T02:14:25.927Z,93.65
2017-03-21T02:15:38.497Z,94.41
2017-03-21T02:16:51.039Z,94.03
2017-03-21T02:18:03.593Z,94.17
2017-03-21T02:19:15.832Z,94.32
2017-03-21T02:20:28.379Z,93.84
2017-03-21T02:21:40.302Z,93.79
2017-03-21T02:22:52.837Z,94.27
2017-03-21T02:24:05.365Z,93.79
2017-03-21T02:25:17.896Z,93.65
2017-03-21T02:26:30.432Z,93.6
2017-03-21T02:27:42.885Z,94.13
2017-03-21T02:28:55.437Z,93.88
2017-03-21T02:30:07.972Z,93.88
2017-03-21T02:31:20.215Z,93.79
2017-03-21T02:32:32.747Z,94.08
2017-03-21T02:33:45.293Z,94.13
2017-03-21T02:34:57.832Z,94.6
2017-03-21T02:36:10.059Z,94.08
2017-03-21T02:37:21.986Z,93.74
2017-03-21T02:38:34.557Z,93.74
2017-03-21T02:39:46.799Z,94.27
2017-03-21T02:40:59.359Z,94.08
2017-03-21T02:42:11.588Z,94.13
2017-03-21T02:43:23.811Z,94.37
2017-03-21T02:44:36.356Z,94.46
2017-03-21T02:45:48.594Z,94.32
2017-03-21T02:47:01.138Z,94.13
2017-03-21T02:48:13.645Z,94.27
2017-03-21T02:49:26.180Z,93.93
2017-03-21T02:50:38.409Z,93.65
2017-03-21T02:51:50.928Z,93.74
2017-03-21T02:53:03.514Z,94.13
2017-03-21T02:54:16.066Z,93.93
2017-03-21T02:55:28.319Z,94.03
2017-03-21T02:56:40.255Z,94.22
2017-03-21T02:57:51.859Z,94.13
2017-03-21T02:59:04.383Z,94.32
2017-03-21T03:00:17.218Z,94.13
2017-03-21T03:01:29.721Z,94.22
2017-03-21T03:02:41.963Z,93.74
2017-03-21T03:03:54.508Z,94.03
2017-03-21T03:05:06.759Z,94.41
2017-03-21T03:06:18.979Z,93.93
2017-03-21T03:07:31.507Z,94.13
2017-03-21T03:08:44.028Z,94.6
2017-03-21T03:09:56.543Z,94.32
2017-03-21T03:11:08.793Z,94.03
2017-03-21T03:12:21.330Z,94.32
2017-03-21T03:13:33.852Z,94.32
2017-03-21T03:14:46.397Z,94.13
2017-03-21T03:15:58.626Z,94.22
2017-03-21T03:17:10.546Z,93.37
2017-03-21T03:18:22.464Z,94.32
2017-03-21T03:19:35.005Z,94.32
2017-03-21T03:20:47.235Z,94.32
2017-03-21T03:22:00.027Z,94.22
2017-03-21T03:23:12.577Z,94.22
2017-03-21T03:24:25.136Z,94.13
2017-03-21T03:25:37.663Z,94.22
2017-03-21T03:26:49.885Z,94.51
2017-03-21T03:28:02.434Z,94.03
2017-03-21T03:29:14.693Z,94.03
2017-03-21T03:30:27.223Z,94.41
2017-03-21T03:31:39.473Z,94.22
2017-03-21T03:32:52.012Z,94.13
2017-03-21T03:34:04.539Z,94.22
2017-03-21T03:35:16.810Z,94.51
2017-03-21T03:36:29.044Z,94.22
2017-03-21T03:37:41.272Z,94.41
2017-03-21T03:38:53.520Z,94.03
2017-03-21T03:40:05.441Z,94.13
2017-03-21T03:41:17.966Z,94.51
2017-03-21T03:42:30.533Z,94.13
2017-03-21T03:43:43.074Z,93.84
2017-03-21T03:44:55.628Z,93.74
2017-03-21T03:46:08.170Z,94.41
2017-03-21T03:47:20.700Z,94.22
2017-03-21T03:48:33.237Z,94.32
2017-03-21T03:49:45.183Z,94.13
2017-03-21T03:50:57.733Z,94.32
2017-03-21T03:52:10.270Z,94.41
2017-03-21T03:53:22.845Z,94.22
2017-03-21T03:54:35.040Z,94.03
2017-03-21T03:55:47.305Z,93.65
2017-03-21T03:56:59.829Z,94.32
2017-03-21T03:58:12.372Z,94.13
2017-03-21T03:59:24.921Z,94.41
2017-03-21T04:00:36.851Z,94.41
2017-03-21T04:01:49.394Z,94.41
2017-03-21T04:03:01.634Z,94.03
2017-03-21T04:04:14.175Z,94.13
2017-03-21T04:05:26.104Z,93.74
2017-03-21T04:06:38.325Z,94.13
2017-03-21T04:07:50.566Z,94.32
2017-03-21T04:09:02.838Z,94.13
2017-03-21T04:10:15.092Z,94.13
2017-03-21T04:11:27.634Z,94.32
2017-03-21T04:12:40.181Z,93.93
2017-03-21T04:13:52.722Z,94.13
2017-03-21T04:15:05.265Z,94.32
2017-03-21T04:16:17.797Z,94.41
2017-03-21T04:17:30.366Z,94.22
2017-03-21T04:18:42.589Z,94.22
2017-03-21T04:19:55.126Z,94.7
2017-03-21T04:21:07.672Z,94.13
2017-03-21T04:22:20.201Z,94.22
2017-03-21T04:23:32.439Z,94.6
2017-03-21T04:24:44.985Z,94.51
2017-03-21T04:25:57.506Z,94.22
2017-03-21T04:27:10.051Z,93.93
2017-03-21T04:28:22.597Z,94.22
2017-03-21T04:29:35.140Z,94.32
2017-03-21T04:30:47.667Z,94.22
2017-03-21T04:31:59.892Z,93.74
2017-03-21T04:33:12.438Z,94.13
2017-03-21T04:34:24.703Z,94.32
2017-03-21T04:35:36.930Z,94.6
2017-03-21T04:36:49.452Z,94.22
2017-03-21T04:38:01.699Z,94.41
2017-03-21T04:39:13.941Z,94.32
2017-03-21T04:40:26.482Z,94.51
2017-03-21T04:41:38.731Z,94.13
2017-03-21T04:42:50.948Z,94.22
2017-03-21T04:44:03.198Z,94.03
2017-03-21T04:45:15.440Z,94.03
2017-03-21T04:46:27.357Z,94.13
2017-03-21T04:47:39.910Z,94.51
2017-03-21T04:48:51.833Z,94.7
2017-03-21T04:50:04.078Z,94.6
2017-03-21T04:51:16.006Z,94.65
2017-03-21T04:52:28.219Z,94.51
2017-03-21T04:53:40.162Z,94.37
2017-03-21T04:54:52.709Z,94.46
2017-03-21T04:56:05.311Z,94.37
2017-03-21T04:57:17.875Z,94.84
2017-03-21T04:58:30.120Z,94.37
2017-03-21T04:59:42.324Z,94.65
2017-03-21T05:00:54.851Z,94.74
2017-03-21T05:02:07.083Z,94.56
2017-03-21T05:03:19.342Z,94.56
2017-03-21T05:04:31.907Z,95.12
2017-03-21T05:05:44.452Z,95.41
2017-03-21T05:06:56.664Z,95.98
2017-03-21T05:08:09.212Z,96.55
2017-03-21T05:09:21.742Z,96.55
2017-03-21T05:10:33.687Z,97.31
2017-03-21T05:11:46.205Z,97.79
2017-03-21T05:12:58.768Z,97.99
2017-03-21T05:14:11.289Z,98.08
2017-03-21T05:15:23.542Z,97.89
2017-03-21T05:16:36.088Z,98.08
2017-03-21T05:17:48.634Z,98.74
2017-03-21T05:19:00.856Z,98.84
2017-03-21T05:20:13.125Z,99.03
2017-03-21T05:21:25.674Z,98.36
2017-03-21T05:22:38.213Z,98.46
2017-03-21T05:23:50.763Z,98.55
2017-03-21T05:25:02.705Z,98.36
2017-03-21T05:26:15.234Z,98.84
2017-03-21T05:27:27.493Z,98.55
2017-03-21T05:28:40.004Z,98.65
2017-03-21T05:29:52.553Z,98.55
2017-03-21T05:31:04.807Z,98.18
2017-03-21T05:32:17.368Z,98.46
2017-03-21T05:33:29.910Z,98.18
2017-03-21T05:34:42.452Z,97.89
2017-03-21T05:35:55.022Z,97.79
2017-03-21T05:37:07.562Z,97.7
2017-03-21T05:38:20.082Z,97.7
2017-03-21T05:39:32.608Z,97.7
2017-03-21T05:40:45.159Z,97.79
2017-03-21T05:41:57.681Z,97.41
2017-03-21T05:43:09.946Z,97.6
2017-03-21T05:44:22.516Z,97.79
2017-03-21T05:45:35.068Z,97.7
2017-03-21T05:46:47.628Z,97.22
2017-03-21T05:48:00.150Z,97.13
2017-03-21T05:49:12.951Z,97.22
2017-03-21T05:50:25.474Z,97.03
2017-03-21T05:51:38.049Z,97.22
2017-03-21T05:52:50.597Z,96.94
2017-03-21T05:54:03.161Z,96.94
2017-03-21T05:55:15.411Z,97.13
2017-03-21T05:56:27.983Z,97.22
2017-03-21T05:57:40.528Z,96.75
2017-03-21T05:58:53.063Z,96.27
2017-03-21T06:00:05.036Z,96.75
2017-03-21T06:01:17.590Z,96.65
2017-03-21T06:02:30.132Z,96.94
2017-03-21T06:03:42.696Z,96.27
2017-03-21T06:04:55.499Z,95.89
2017-03-21T06:06:07.749Z,96.75
2017-03-21T06:07:20.286Z,96.75
2017-03-21T06:08:32.805Z,96.65
2017-03-21T06:09:45.332Z,96.65
2017-03-21T06:10:57.882Z,96.36
2017-03-21T06:12:10.426Z,96.55
2017-03-21T06:13:22.676Z,96.27
2017-03-21T06:14:34.909Z,96.36
2017-03-21T06:15:47.136Z,96.08
2017-03-21T06:16:59.361Z,95.6
2017-03-21T06:18:11.575Z,95.32
2017-03-21T06:19:24.139Z,95.41
2017-03-21T06:20:36.699Z,95.84
2017-03-21T06:21:48.969Z,95.94
2017-03-21T06:23:01.191Z,95.27
2017-03-21T06:24:13.431Z,94.51
2017-03-21T06:25:25.982Z,94.41
2017-03-21T06:26:38.470Z,94.98
2017-03-21T06:27:50.991Z,94.98
2017-03-21T06:29:03.221Z,94.6
2017-03-21T06:30:15.760Z,94.51
2017-03-21T06:31:27.984Z,94.7
2017-03-21T06:32:40.233Z,94.03
2017-03-21T06:33:52.468Z,94.32
2017-03-21T06:35:04.715Z,94.32
2017-03-21T06:36:17.285Z,93.65
2017-03-21T06:37:29.793Z,93.98
2017-03-21T06:38:42.314Z,93.88
2017-03-21T06:39:54.857Z,93.41
2017-03-21T06:41:07.369Z,93.12
2017-03-21T06:42:19.593Z,93.22
2017-03-21T06:43:32.140Z,92.55
2017-03-21T06:44:44.692Z,92.65
2017-03-21T06:45:57.238Z,92.55
2017-03-21T06:47:09.449Z,92.84
2017-03-21T06:48:21.681Z,92.27
2017-03-21T06:49:34.241Z,92.36
2017-03-21T06:50:46.465Z,92.88
2017-03-21T06:51:59.036Z,93.27
2017-03-21T06:53:11.557Z,93.27
2017-03-21T06:54:24.099Z,93.27
2017-03-21T06:55:36.652Z,93.7
2017-03-21T06:56:49.247Z,93.74
2017-03-21T06:58:01.199Z,94.27
2017-03-21T06:59:13.716Z,94.46
2017-03-21T07:00:26.283Z,95.12
2017-03-21T07:01:38.824Z,96.65
2017-03-21T07:02:51.078Z,96.84
2017-03-21T07:04:03.620Z,97.41
2017-03-21T07:05:15.865Z,97.94
2017-03-21T07:06:28.397Z,98.22
2017-03-21T07:07:40.634Z,98.6
2017-03-21T07:08:53.187Z,99.08
2017-03-21T07:10:05.381Z,99.27
2017-03-21T07:11:17.628Z,99.27
2017-03-21T07:12:29.545Z,99.65
2017-03-21T07:13:41.787Z,99.32
2017-03-21T07:14:54.312Z,99.79
2017-03-21T07:16:06.852Z,99.99
2017-03-21T07:17:19.096Z,99.99
2017-03-21T07:18:31.625Z,99.99
2017-03-21T07:19:44.166Z,99.99
2017-03-21T07:20:56.663Z,99.99
2017-03-21T07:22:09.216Z,99.99
2017-03-21T07:23:21.751Z,99.99
2017-03-21T07:24:33.679Z,99.99
2017-03-21T07:25:46.200Z,99.99
2017-03-21T07:26:58.438Z,99.99
2017-03-21T07:28:10.688Z,99.99
2017-03-21T07:29:23.242Z,99.99
2017-03-21T07:30:35.786Z,99.99
2017-03-21T07:31:48.332Z,99.99
2017-03-21T07:33:00.002Z,99.99
2017-03-21T07:34:12.239Z,99.99
2017-03-21T07:35:24.743Z,99.99
2017-03-21T07:36:37.318Z,99.99
2017-03-21T07:37:49.866Z,99.99
2017-03-21T07:39:02.427Z,99.99
2017-03-21T07:40:14.979Z,99.99
2017-03-21T07:41:27.514Z,99.99
2017-03-21T07:42:39.739Z,99.99
2017-03-21T07:43:51.985Z,99.99
2017-03-21T07:45:04.537Z,99.99
2017-03-21T07:46:16.758Z,99.99
2017-03-21T07:47:29.281Z,99.99
2017-03-21T07:48:41.522Z,99.99
2017-03-21T07:49:54.074Z,99.99
2017-03-21T07:51:06.641Z,99.99
2017-03-21T07:52:19.186Z,99.99
2017-03-21T07:53:31.431Z,99.99
2017-03-21T07:54:43.977Z,99.99
2017-03-21T07:55:56.498Z,99.99
2017-03-21T07:57:09.050Z,99.99
2017-03-21T07:58:21.286Z,99.99
2017-03-21T07:59:33.540Z,99.99
2017-03-21T08:00:46.077Z,99.99
2017-03-21T08:01:58.324Z,99.99
2017-03-21T08:03:10.878Z,99.99
2017-03-21T08:04:23.423Z,99.99
2017-03-21T08:05:35.957Z,99.99
2017-03-21T08:06:48.482Z,99.99
2017-03-21T08:08:00.723Z,99.99
2017-03-21T08:09:12.673Z,99.99
2017-03-21T08:10:25.248Z,99.99
2017-03-21T08:11:37.801Z,99.99
2017-03-21T08:12:49.734Z,99.99
2017-03-21T08:14:02.279Z,99.99
2017-03-21T08:15:14.503Z,99.99
2017-03-21T08:16:27.021Z,99.99
2017-03-21T08:17:39.551Z,99.99
2017-03-21T08:18:51.766Z,99.99
2017-03-21T08:20:03.994Z,99.99
2017-03-21T08:21:16.561Z,99.99
2017-03-21T08:22:28.503Z,99.99
2017-03-21T08:23:40.746Z,99.99
2017-03-21T08:24:53.296Z,99.99
2017-03-21T08:26:05.552Z,99.99
2017-03-21T08:27:18.137Z,98.94
2017-03-21T08:28:30.656Z,99.32
2017-03-21T08:29:43.188Z,99.51
2017-03-21T08:30:55.707Z,99.51
2017-03-21T08:32:08.250Z,99.32
2017-03-21T08:33:20.489Z,99.32
2017-03-21T08:34:32.984Z,99.8
2017-03-21T08:35:45.209Z,99.32
2017-03-21T08:36:57.762Z,99.8
2017-03-21T08:38:09.980Z,99.51
2017-03-21T08:39:21.932Z,99.6
2017-03-21T08:40:34.200Z,99.99
2017-03-21T08:41:46.135Z,99.8
2017-03-21T08:42:58.668Z,99.99
2017-03-21T08:44:10.906Z,99.99
2017-03-21T08:45:23.434Z,99.7
2017-03-21T08:46:35.345Z,99.32
2017-03-21T08:47:47.575Z,99.32
2017-03-21T08:49:00.114Z,99.6
2017-03-21T08:50:12.660Z,99.6
2017-03-21T08:51:24.903Z,99.37
2017-03-21T08:52:37.414Z,99.08
2017-03-21T08:53:49.623Z,98.8
2017-03-21T08:55:01.877Z,98.9
2017-03-21T08:56:14.119Z,98.51
2017-03-21T08:57:26.657Z,98.47
2017-03-21T08:58:39.131Z,98.27
2017-03-21T08:59:51.644Z,97.51
2017-03-21T09:01:04.245Z,97.51
2017-03-21T09:02:16.777Z,96.84
2017-03-21T09:03:29.315Z,96.8
2017-03-21T09:04:41.565Z,96.61
2017-03-21T09:05:54.111Z,95.84
2017-03-21T09:07:06.625Z,95.56
2017-03-21T09:08:19.130Z,94.46
2017-03-21T09:09:31.375Z,94.46
2017-03-21T09:10:43.615Z,93.88
2017-03-21T09:11:55.244Z,93.21
2017-03-21T09:13:07.179Z,92.97
2017-03-21T09:14:19.400Z,92.21
2017-03-21T09:15:31.910Z,91.93
2017-03-21T09:16:44.117Z,92.59
2017-03-21T09:17:56.374Z,92.02
2017-03-21T09:19:08.643Z,91.49
2017-03-21T09:20:20.909Z,92.54
2017-03-21T09:21:33.457Z,92.07
2017-03-21T09:22:45.989Z,91.39
2017-03-21T09:23:58.508Z,91.11
2017-03-21T09:25:11.041Z,91.68
2017-03-21T09:26:23.583Z,91.68
2017-03-21T09:27:35.806Z,89.48
2017-03-21T09:28:48.325Z,89.67
2017-03-21T09:30:00.871Z,90.63
2017-03-21T09:31:13.101Z,90.44
2017-03-21T09:32:25.649Z,90.73
2017-03-21T09:33:37.860Z,89.2
2017-03-21T09:34:50.381Z,89.39
2017-03-21T09:36:02.937Z,88.24
2017-03-21T09:37:14.597Z,87.86
2017-03-21T09:38:27.102Z,87.86
2017-03-21T09:39:39.325Z,87.57
2017-03-21T09:40:51.842Z,87.48
2017-03-21T09:42:04.364Z,87.29
2017-03-21T09:43:16.577Z,88.05
2017-03-21T09:44:29.109Z,87.57
2017-03-21T09:45:41.631Z,86.9
2017-03-21T09:46:54.172Z,86.61
2017-03-21T09:48:06.096Z,87.29
2017-03-21T09:49:18.646Z,88.05
2017-03-21T09:50:30.888Z,88.15
2017-03-21T09:51:43.425Z,87.29
2017-03-21T09:52:55.377Z,86.71
2017-03-21T09:54:07.641Z,86.86
2017-03-21T09:55:19.594Z,87.15
2017-03-21T09:56:32.135Z,87.43
2017-03-21T09:57:44.402Z,86.19
2017-03-21T09:58:56.623Z,86.19
2017-03-21T10:00:09.177Z,86.19
2017-03-21T10:01:21.732Z,86.38
2017-03-21T10:02:34.261Z,85.9
2017-03-21T10:03:46.783Z,85.9
2017-03-21T10:04:59.315Z,86.38
2017-03-21T10:06:11.536Z,87.34
2017-03-21T10:07:24.048Z,87.24
2017-03-21T10:08:36.591Z,87.34
2017-03-21T10:09:49.119Z,87.34
2017-03-21T10:11:01.665Z,87.39
2017-03-21T10:12:13.931Z,87.2
2017-03-21T10:13:25.886Z,88.54
2017-03-21T10:14:38.434Z,88.73
2017-03-21T10:15:50.349Z,88.92
2017-03-21T10:17:02.573Z,88.92
2017-03-21T10:18:14.820Z,89.2
2017-03-21T10:19:27.056Z,89.49
2017-03-21T10:20:39.607Z,89.59
2017-03-21T10:21:52.154Z,89.11
2017-03-21T10:23:04.699Z,89.59
2017-03-21T10:24:16.900Z,89.2
2017-03-21T10:25:29.166Z,89.59
2017-03-21T10:26:41.391Z,89.49
2017-03-21T10:27:53.904Z,89.59
2017-03-21T10:29:06.129Z,89.49
2017-03-21T10:30:18.670Z,87.87
2017-03-21T10:31:30.925Z,87.96
2017-03-21T10:32:43.439Z,87.15
2017-03-21T10:33:55.990Z,87.05
2017-03-21T10:35:08.225Z,87.48
2017-03-21T10:36:20.479Z,87.48
2017-03-21T10:37:33.000Z,89.15
2017-03-21T10:38:45.563Z,89.34
2017-03-21T10:39:57.495Z,89.92
2017-03-21T10:41:10.006Z,90.68
2017-03-21T10:42:22.240Z,90.68
2017-03-21T10:43:34.780Z,90.92
2017-03-21T10:44:47.021Z,91.97
2017-03-21T10:45:59.589Z,92.97
2017-03-21T10:47:12.135Z,92.74
2017-03-21T10:48:24.663Z,92.93
2017-03-21T10:49:37.177Z,93.21
2017-03-21T10:50:49.402Z,93.5
2017-03-21T10:52:01.955Z,93.41
2017-03-21T10:53:13.892Z,93.6
2017-03-21T10:54:26.138Z,92.83
2017-03-21T10:55:38.664Z,93.7
2017-03-21T10:56:50.931Z,92.16
2017-03-21T10:58:03.724Z,93.31
2017-03-21T10:59:15.955Z,93.12
2017-03-21T11:00:28.490Z,92.16
2017-03-21T11:01:41.027Z,92.26
2017-03-21T11:02:53.258Z,90.92
2017-03-21T11:04:05.801Z,92.93
2017-03-21T11:05:18.027Z,91.59
2017-03-21T11:06:30.580Z,91.88
2017-03-21T11:07:42.230Z,90.83
2017-03-21T11:08:54.437Z,90.54
2017-03-21T11:10:06.982Z,90.06
2017-03-21T11:11:19.228Z,90.73
2017-03-21T11:12:31.457Z,91.69
2017-03-21T11:13:44.081Z,90.35
2017-03-21T11:14:56.619Z,89.87
2017-03-21T11:16:08.564Z,90.16
2017-03-21T11:17:20.819Z,90.45
2017-03-21T11:18:33.057Z,90.3
2017-03-21T11:19:45.882Z,89.59
2017-03-21T11:20:58.448Z,89.78
2017-03-21T11:22:10.676Z,88.92
2017-03-21T11:23:22.891Z,89.44
2017-03-21T11:24:34.836Z,89.59
2017-03-21T11:25:46.787Z,88.29
2017-03-21T11:26:59.029Z,88.82
2017-03-21T11:28:11.550Z,88.82
2017-03-21T11:29:24.091Z,89.2
2017-03-21T11:30:36.323Z,89.49
2017-03-21T11:31:48.866Z,90.25
2017-03-21T11:33:00.804Z,89.97
2017-03-21T11:34:13.035Z,89.59
2017-03-21T11:35:25.325Z,89.68
2017-03-21T11:36:37.878Z,89.11
2017-03-21T11:37:50.142Z,89.01
2017-03-21T11:39:02.659Z,88.82
2017-03-21T11:40:15.206Z,88.63
2017-03-21T11:41:27.737Z,89.01
2017-03-21T11:42:39.958Z,88.44
2017-03-21T11:43:52.225Z,88.73
2017-03-21T11:45:04.775Z,86.82
2017-03-21T11:46:17.318Z,87.48
2017-03-21T11:47:29.267Z,87.39
2017-03-21T11:48:41.833Z,87.2
2017-03-21T11:49:53.459Z,87.77
2017-03-21T11:51:06.023Z,87.1
2017-03-21T11:52:17.947Z,86.82
2017-03-21T11:53:30.513Z,86.63
2017-03-21T11:54:42.759Z,86.72
2017-03-21T11:55:55.010Z,86.91
2017-03-21T11:57:06.958Z,85.67
2017-03-21T11:58:19.202Z,86.82
2017-03-21T11:59:31.746Z,86
2017-03-21T12:00:43.972Z,85.77
2017-03-21T12:01:56.235Z,85.58
2017-03-21T12:03:08.492Z,85.86
2017-03-21T12:04:20.431Z,85
2017-03-21T12:05:32.983Z,85.67
2017-03-21T12:06:44.919Z,85.67
2017-03-21T12:07:57.189Z,86.15
2017-03-21T12:09:09.435Z,87.39
2017-03-21T12:10:21.988Z,89.01
2017-03-21T12:11:33.924Z,90.45
2017-03-21T12:12:46.462Z,90.64
2017-03-21T12:13:58.974Z,91.4
2017-03-21T12:15:11.519Z,92.36
2017-03-21T12:16:23.443Z,93.5
2017-03-21T12:17:35.383Z,93.88
2017-03-21T12:18:47.608Z,93.79
2017-03-21T12:20:00.153Z,92.07
2017-03-21T12:21:12.402Z,92.21
2017-03-21T12:22:24.945Z,92.97
2017-03-21T12:23:37.166Z,93.65
2017-03-21T12:24:49.386Z,93.74
2017-03-21T12:26:01.612Z,93.65
2017-03-21T12:27:14.156Z,92.97
2017-03-21T12:28:26.395Z,93.26
2017-03-21T12:29:38.941Z,94.03
2017-03-21T12:30:51.466Z,93.65
2017-03-21T12:32:03.680Z,94.6
2017-03-21T12:33:15.575Z,94.12
2017-03-21T12:34:27.825Z,94.03
2017-03-21T12:35:40.395Z,94.07
2017-03-21T12:36:52.314Z,93.51
2017-03-21T12:38:04.834Z,93.7
2017-03-21T12:39:17.358Z,94.17
2017-03-21T12:40:29.614Z,93.6
2017-03-21T12:41:41.847Z,93.7
2017-03-21T12:42:54.068Z,93.6
2017-03-21T12:44:06.338Z,94.46
2017-03-21T12:45:18.896Z,94.56
2017-03-21T12:46:31.463Z,94.17
2017-03-21T12:47:44.000Z,94.31
2017-03-21T12:48:56.225Z,94.65
2017-03-21T12:50:08.798Z,94.46
2017-03-21T12:51:21.343Z,95.41
2017-03-21T12:52:33.589Z,94.46
2017-03-21T12:53:46.139Z,94.46
2017-03-21T12:54:58.087Z,93.26
2017-03-21T12:56:10.633Z,93.74
2017-03-21T12:57:23.169Z,93.74
2017-03-21T12:58:35.414Z,93.26
2017-03-21T12:59:47.945Z,93.74
2017-03-21T13:01:00.482Z,93.26
2017-03-21T13:02:13.002Z,92.88
2017-03-21T13:03:25.510Z,93.26
2017-03-21T13:04:38.051Z,92.97
2017-03-21T13:05:50.289Z,92.02
2017-03-21T13:07:02.793Z,91.64
2017-03-21T13:08:15.357Z,92.02
2017-03-21T13:09:27.906Z,91.93
2017-03-21T13:10:40.135Z,91.55
2017-03-21T13:11:52.372Z,91.16
2017-03-21T13:13:04.651Z,91.16
2017-03-21T13:14:16.914Z,91.36
2017-03-21T13:15:29.182Z,91.45
2017-03-21T13:16:41.403Z,91.36
2017-03-21T13:17:53.637Z,91.64
2017-03-21T13:19:05.894Z,91.55
2017-03-21T13:20:18.119Z,91.45
2017-03-21T13:21:30.344Z,90.78
2017-03-21T13:22:42.883Z,90.4
2017-03-21T13:23:55.142Z,90.5
2017-03-21T13:25:07.686Z,90.4
2017-03-21T13:26:20.229Z,91.45
2017-03-21T13:27:32.169Z,90.78
2017-03-21T13:28:44.095Z,91.16
2017-03-21T13:29:56.338Z,91.36
2017-03-21T13:31:08.881Z,91.45
2017-03-21T13:32:21.428Z,91.74
2017-03-21T13:33:33.999Z,90.97
2017-03-21T13:34:46.242Z,90.88
2017-03-21T13:35:58.771Z,91.16
2017-03-21T13:37:10.994Z,91.45
2017-03-21T13:38:23.230Z,92.12
2017-03-21T13:39:35.762Z,91.45
2017-03-21T13:40:48.271Z,91.74
2017-03-21T13:42:00.474Z,92.02
2017-03-21T13:43:12.700Z,91.64
2017-03-21T13:44:25.292Z,91.83
2017-03-21T13:45:37.241Z,91.55
2017-03-21T13:46:49.804Z,91.55
2017-03-21T13:48:02.330Z,91.93
2017-03-21T13:49:14.871Z,91.93
2017-03-21T13:50:27.422Z,92.21
2017-03-21T13:51:39.642Z,92.21
2017-03-21T13:52:51.560Z,91.36
2017-03-21T13:54:03.475Z,91.83
2017-03-21T13:55:15.372Z,91.55
2017-03-21T13:56:27.569Z,91.55
2017-03-21T13:57:39.793Z,91.36
2017-03-21T13:58:52.035Z,91.64
2017-03-21T14:00:04.560Z,91.55
2017-03-21T14:01:16.509Z,91.55
2017-03-21T14:02:29.048Z,92.12
2017-03-21T14:03:41.543Z,90.97
2017-03-21T14:04:53.468Z,90.97
2017-03-21T14:06:05.692Z,91.21
2017-03-21T14:07:17.969Z,91.41
2017-03-21T14:08:30.205Z,91.21
2017-03-21T14:09:42.756Z,91.31
2017-03-21T14:10:55.002Z,91.6
2017-03-21T14:12:07.218Z,91.41
2017-03-21T14:13:19.464Z,91.98
2017-03-21T14:14:32.008Z,92.17
2017-03-21T14:15:43.953Z,92.26
2017-03-21T14:16:56.178Z,92.74
2017-03-21T14:18:07.821Z,93.12
2017-03-21T14:19:20.348Z,93.22
2017-03-21T14:20:32.261Z,92.83
2017-03-21T14:21:44.487Z,92.36
2017-03-21T14:22:56.707Z,92.65
2017-03-21T14:24:09.262Z,92.36
2017-03-21T14:25:21.206Z,92.83
2017-03-21T14:26:33.753Z,91.78
2017-03-21T14:27:45.995Z,91.88
2017-03-21T14:28:58.267Z,91.98
2017-03-21T14:30:10.815Z,92.07
2017-03-21T14:31:23.378Z,92.07
2017-03-21T14:32:35.621Z,91.5
2017-03-21T14:33:48.170Z,91.21
2017-03-21T14:34:59.487Z,91.41
2017-03-21T14:36:11.712Z,91.6
2017-03-21T14:37:23.929Z,91.5
2017-03-21T14:38:35.562Z,91.31
2017-03-21T14:39:47.805Z,91.41
2017-03-21T14:41:00.021Z,91.69
2017-03-21T14:42:11.970Z,91.6
2017-03-21T14:43:24.170Z,91.78
2017-03-21T14:44:36.406Z,91.6
2017-03-21T14:45:48.927Z,91.5
2017-03-21T14:47:01.176Z,91.5
2017-03-21T14:48:13.729Z,91.41
2017-03-21T14:49:26.000Z,91.21
2017-03-21T14:50:38.217Z,91.93
2017-03-21T14:51:50.743Z,92.07
2017-03-21T14:53:03.279Z,91.21
2017-03-21T14:54:15.522Z,91.98
2017-03-21T14:55:27.423Z,91.6
2017-03-21T14:56:39.963Z,92.07
2017-03-21T14:57:52.229Z,92.07
2017-03-21T14:59:04.163Z,92.07
2017-03-21T15:00:16.711Z,92.17
2017-03-21T15:01:29.230Z,91.88
2017-03-21T15:02:40.882Z,92.07
2017-03-21T15:03:52.818Z,92.17
2017-03-21T15:05:04.459Z,92.07
2017-03-21T15:06:17.032Z,91.5
2017-03-21T15:07:29.565Z,91.69
2017-03-21T15:08:42.103Z,91.5
2017-03-21T15:09:54.308Z,91.6
2017-03-21T15:11:06.804Z,91.21
2017-03-21T15:12:19.350Z,91.5
2017-03-21T15:13:31.293Z,91.5
2017-03-21T15:14:43.836Z,91.12
2017-03-21T15:15:55.773Z,91.69
2017-03-21T15:17:07.677Z,92.07
2017-03-21T15:18:20.206Z,91.98
2017-03-21T15:19:32.423Z,91.88
2017-03-21T15:20:44.686Z,92.46
2017-03-21T15:21:56.931Z,92.17
2017-03-21T15:23:09.200Z,92.07
2017-03-21T15:24:21.423Z,91.98
2017-03-21T15:25:33.944Z,91.88
2017-03-21T15:26:45.891Z,92.17
2017-03-21T15:27:58.436Z,92.07
2017-03-21T15:29:10.361Z,91.98
2017-03-21T15:30:22.310Z,91.88
2017-03-21T15:31:34.257Z,91.5
2017-03-21T15:32:46.202Z,91.6
2017-03-21T15:33:58.447Z,91.6
2017-03-21T15:35:10.673Z,91.98